Bluff City, AR

3:24 PM CDT on March 29, 2017 (GMT -0500)
Stephens Fire Department | | Change Station
Active Advisory: Lake Wind Advisory

Elev 266 ft 33.41 °N, 93.07 °W | Updated 16 seconds ago

Mostly Cloudy
Mostly Cloudy
77.7 °F
Feels Like 79 °F
N
9.6
Wind Variable Wind from SSE
Gusts 9.8 mph

Today
High -- | Low -- °F
--% Chance of Precip.
Yesterday
High -- | Low -- °F
Precip. -- in
Pressure 29.77 in
Visibility 10.0 miles
Clouds Clear
Heat Index 79 °F
Dew Point 60 °F
Humidity 54%
Rainfall 0.00 in
Snow Depth Not available.
7:03 AM 7:31 PM
Waxing Crescent, 4% visible
METAR KCDH 292015Z AUTO 17010G16KT 10SM CLR 27/14 A2977 RMK AO2
Pressure 29.77 in
Visibility 10.0 miles
Clouds Clear
Heat Index 79 °F
Dew Point 60 °F
Humidity 54%
Rainfall 0.00 in
Snow Depth Not available.
7:03 AM 7:31 PM
Waxing Crescent, 4% visible
METAR KCDH 292015Z AUTO 17010G16KT 10SM CLR 27/14 A2977 RMK AO2

Get Your Daily Forecast Email!

Thanks for signing up!

Be on the lookout for a verification email in your inbox.

You'll start receiving severe weather alerts in your inbox..

×

10-Day Weather Forecast

Almanac

Astronomy

Mar. 29, 2017 Rise Set
Actual Time
Civil Twilight
Nautical Twilight
Astronomical Twilight
Moon
Length of Visible Light
Length of Day
Tomorrow will be .
, % of the Moon is Illuminated

Today's Extremes

State Highs State Lows

Community

WunderPhotos

Upload Photos

1,962,540 photos uploaded!

WunderBlog® & News

Nearby

Air Quality

  Air Quality AQ Index Pollutant
Not available.

Snow Depth

Station Depth Elevation

Earthquake Activity

City Distance Mag. Time & Date
Minimum magnitude displayed is 2.5.

Earthquake Activity

City Distance Mag. Time & Date
Minimum magnitude displayed is 2.5.

Coastal Water Temperatures

Place Temperature

Stations

Nearby Weather Stations

Station Location Temp. Windchill Dew Point Humidity Wind Precip. Elev Updated Type
                   

Watches & Warnings

Lake Wind Advisory
Issued: 1:39 PM CDT Mar. 29, 2017 – National Weather Service

... Lake Wind Advisory remains in effect until 7 PM CDT this
evening...

* event... a tightening pressure gradient will result in
southerly winds increasing to 15 to 20 mph with gusts to 30
mph.

* Timing... until 7 PM CDT this evening.

* Impact... winds will likely produce a rough chop on area lakes
and open waterways, which may be hazardous for boaters...
especially for small craft.

Precautionary/preparedness actions...

A lake Wind Advisory indicates that winds will cause rough chop
on area lakes. Small boats will be especially prone to capsizing.